createdAt,value
2018-09-11T00:01:45.897Z,99.90
2018-09-11T00:04:13.981Z,99.90
2018-09-11T00:06:41.965Z,99.90
2018-09-11T00:09:11.837Z,99.90
2018-09-11T00:11:39.861Z,99.90
2018-09-11T00:14:08.217Z,99.90
2018-09-11T00:16:36.357Z,99.90
2018-09-11T00:19:04.362Z,99.90
2018-09-11T00:21:32.521Z,99.90
2018-09-11T00:24:00.802Z,99.90
2018-09-11T00:26:28.831Z,99.90
2018-09-11T00:28:56.858Z,99.90
2018-09-11T00:31:24.849Z,99.90
2018-09-11T00:33:53.082Z,99.90
2018-09-11T00:36:21.077Z,99.90
2018-09-11T00:38:49.077Z,99.90
2018-09-11T00:41:17.103Z,99.90
2018-09-11T00:43:45.165Z,99.90
2018-09-11T00:46:13.269Z,99.90
2018-09-11T00:48:41.254Z,99.90
2018-09-11T00:51:09.278Z,99.90
2018-09-11T00:53:37.355Z,99.90
2018-09-11T00:56:05.478Z,99.90
2018-09-11T00:58:33.547Z,99.90
2018-09-11T01:01:01.629Z,99.90
2018-09-11T01:03:29.631Z,99.90
2018-09-11T01:05:57.934Z,99.90
2018-09-11T01:08:25.950Z,99.90
2018-09-11T01:10:54.031Z,99.90
2018-09-11T01:13:22.319Z,99.90
2018-09-11T01:15:50.307Z,99.90
2018-09-11T01:18:18.316Z,99.90
2018-09-11T01:20:46.377Z,99.90
2018-09-11T01:23:14.510Z,99.90
2018-09-11T01:25:42.497Z,99.90
2018-09-11T01:28:10.607Z,99.90
2018-09-11T01:30:38.603Z,99.90
2018-09-11T01:33:06.689Z,99.90
2018-09-11T01:35:34.785Z,99.90
2018-09-11T01:38:02.797Z,99.90
2018-09-11T01:40:30.886Z,99.90
2018-09-11T01:42:58.977Z,99.90
2018-09-11T01:45:26.973Z,99.90
2018-09-11T01:47:55.016Z,99.90
2018-09-11T01:50:23.069Z,99.90
2018-09-11T01:52:51.102Z,99.90
2018-09-11T01:55:19.141Z,99.90
2018-09-11T01:57:47.158Z,99.90
2018-09-11T02:00:20.497Z,99.90
2018-09-11T02:02:48.771Z,99.90
2018-09-11T02:05:17.185Z,99.90
2018-09-11T02:07:45.198Z,99.90
2018-09-11T02:10:13.678Z,99.90
2018-09-11T02:12:41.773Z,99.90
2018-09-11T02:15:10.793Z,99.90
2018-09-11T02:17:39.296Z,99.90
2018-09-11T02:20:07.313Z,99.90
2018-09-11T02:22:35.306Z,99.90
2018-09-11T02:25:03.481Z,99.90
2018-09-11T02:27:31.470Z,99.90
2018-09-11T02:29:59.777Z,99.90
2018-09-11T02:32:27.780Z,99.90
2018-09-11T02:34:55.887Z,99.90
2018-09-11T02:37:24.107Z,99.90
2018-09-11T02:39:52.278Z,99.90
2018-09-11T02:42:20.364Z,99.90
2018-09-11T02:44:48.361Z,99.90
2018-09-11T02:47:16.345Z,99.90
2018-09-11T02:49:44.365Z,99.90
2018-09-11T02:52:12.366Z,99.90
2018-09-11T02:54:40.430Z,99.90
2018-09-11T02:57:08.420Z,99.90
2018-09-11T02:59:36.837Z,99.90
2018-09-11T03:02:04.943Z,99.90
2018-09-11T03:04:32.938Z,99.90
2018-09-11T03:07:01.233Z,99.90
2018-09-11T03:09:29.217Z,99.90
2018-09-11T03:11:57.209Z,99.90
2018-09-11T03:14:25.326Z,99.90
2018-09-11T03:16:53.422Z,99.90
2018-09-11T03:19:21.405Z,99.90
2018-09-11T03:21:49.713Z,99.90
2018-09-11T03:24:17.810Z,99.90
2018-09-11T03:26:45.810Z,99.90
2018-09-11T03:29:14.014Z,99.90
2018-09-11T03:31:42.102Z,99.90
2018-09-11T03:34:10.131Z,99.90
2018-09-11T03:36:38.120Z,99.90
2018-09-11T03:39:07.557Z,99.90
2018-09-11T03:41:35.547Z,99.90
2018-09-11T03:44:03.839Z,99.90
2018-09-11T03:46:31.814Z,99.90
2018-09-11T03:48:59.839Z,99.90
2018-09-11T03:51:27.869Z,99.90
2018-09-11T03:53:55.894Z,99.90
2018-09-11T03:56:24.298Z,99.90
2018-09-11T03:58:52.293Z,99.90
2018-09-11T04:01:20.785Z,99.90
2018-09-11T04:03:48.817Z,99.90
2018-09-11T04:06:16.893Z,99.90
2018-09-11T04:08:44.956Z,99.90
2018-09-11T04:11:12.994Z,99.90
2018-09-11T04:13:40.987Z,99.90
2018-09-11T04:16:09.077Z,99.90
2018-09-11T04:18:37.118Z,99.90
2018-09-11T04:21:05.261Z,99.90
2018-09-11T04:23:33.469Z,99.90
2018-09-11T04:26:01.556Z,99.90
2018-09-11T04:28:29.553Z,99.90
2018-09-11T04:30:57.544Z,99.90
2018-09-11T04:33:25.649Z,99.90
2018-09-11T04:35:54.671Z,99.90
2018-09-11T04:38:22.702Z,99.90
2018-09-11T04:40:50.753Z,99.90
2018-09-11T04:43:18.754Z,99.90
2018-09-11T04:45:46.774Z,99.90
2018-09-11T04:48:14.767Z,99.90
2018-09-11T04:50:42.841Z,99.90
2018-09-11T04:53:10.936Z,99.90
2018-09-11T04:55:39.382Z,99.90
2018-09-11T04:58:07.387Z,99.90
2018-09-11T05:00:35.429Z,99.90
2018-09-11T05:03:03.731Z,99.90
2018-09-11T05:05:31.723Z,99.90
2018-09-11T05:07:59.708Z,99.90
2018-09-11T05:10:27.729Z,99.90
2018-09-11T05:12:55.722Z,99.90
2018-09-11T05:15:24.628Z,99.90
2018-09-11T05:17:52.864Z,99.90
2018-09-11T05:20:20.914Z,99.90
2018-09-11T05:22:48.902Z,99.90
2018-09-11T05:25:16.916Z,99.90
2018-09-11T05:27:45.005Z,99.90
2018-09-11T05:30:13.005Z,99.90
2018-09-11T05:32:41.007Z,99.90
2018-09-11T05:35:09.026Z,99.90
2018-09-11T05:37:37.097Z,99.90
2018-09-11T05:40:05.080Z,99.90
2018-09-11T05:42:33.093Z,99.90
2018-09-11T05:45:01.178Z,99.90
2018-09-11T05:47:29.268Z,99.90
2018-09-11T05:49:57.309Z,99.90
2018-09-11T05:52:25.282Z,99.90
2018-09-11T05:54:53.341Z,99.90
2018-09-11T05:57:21.364Z,99.90
2018-09-11T05:59:49.381Z,99.90
2018-09-11T06:02:17.361Z,99.90
2018-09-11T06:04:45.450Z,99.90
2018-09-11T06:07:13.525Z,99.90
2018-09-11T06:09:48.066Z,99.90
2018-09-11T06:12:16.393Z,99.90
2018-09-11T06:14:44.485Z,99.90
2018-09-11T06:17:12.484Z,99.90
2018-09-11T06:19:40.509Z,99.90
2018-09-11T06:22:08.507Z,99.90
2018-09-11T06:24:36.562Z,99.90
2018-09-11T06:27:04.970Z,99.90
2018-09-11T06:29:33.074Z,99.90
2018-09-11T06:32:01.167Z,99.90
2018-09-11T06:34:29.229Z,99.90
2018-09-11T06:36:57.258Z,99.90
2018-09-11T06:39:25.485Z,99.90
2018-09-11T06:41:53.498Z,99.90
2018-09-11T06:44:21.526Z,99.90
2018-09-11T06:46:49.539Z,99.90
2018-09-11T06:49:17.555Z,99.90
2018-09-11T06:51:45.634Z,99.90
2018-09-11T06:54:13.738Z,99.90
2018-09-11T06:56:41.835Z,99.90
2018-09-11T06:59:09.896Z,99.90
2018-09-11T07:01:37.934Z,99.90
2018-09-11T07:04:06.673Z,99.90
2018-09-11T07:06:34.652Z,99.90
2018-09-11T07:09:02.677Z,99.90
2018-09-11T07:11:30.722Z,99.90
2018-09-11T07:13:58.710Z,99.90
2018-09-11T07:16:26.742Z,99.90
2018-09-11T07:18:55.006Z,99.90
2018-09-11T07:21:23.410Z,99.90
2018-09-11T07:23:51.392Z,99.90
2018-09-11T07:26:19.501Z,99.90
2018-09-11T07:28:47.506Z,99.90
2018-09-11T07:31:15.762Z,99.90
2018-09-11T07:33:44.095Z,99.90
2018-09-11T07:36:12.126Z,99.90
2018-09-11T07:38:40.118Z,99.90
2018-09-11T07:41:08.695Z,99.90
2018-09-11T07:43:36.793Z,99.90
2018-09-11T07:46:04.831Z,99.90
2018-09-11T07:48:32.919Z,99.90
2018-09-11T07:51:00.980Z,99.90
2018-09-11T07:53:29.056Z,99.90
2018-09-11T07:55:57.001Z,99.90
2018-09-11T07:58:25.067Z,99.90
2018-09-11T08:00:53.165Z,99.90
2018-09-11T08:03:21.465Z,99.90
2018-09-11T08:05:49.467Z,99.90
2018-09-11T08:08:18.651Z,99.90
2018-09-11T08:10:46.891Z,99.90
2018-09-11T08:13:14.983Z,99.90
2018-09-11T08:15:43.078Z,99.70
2018-09-11T08:18:11.182Z,99.40
2018-09-11T08:20:39.432Z,99.70
2018-09-11T08:23:07.485Z,99.90
2018-09-11T08:25:35.569Z,99.80
2018-09-11T08:28:03.666Z,99.60
2018-09-11T08:30:32.261Z,99.90
2018-09-11T08:33:01.291Z,99.90
2018-09-11T08:35:29.394Z,99.60
2018-09-11T08:37:57.382Z,99.40
2018-09-11T08:40:25.423Z,99.60
2018-09-11T08:42:53.413Z,99.20
2018-09-11T08:45:21.462Z,99.90
2018-09-11T08:47:49.504Z,99.00
2018-09-11T08:50:17.557Z,98.60
2018-09-11T08:52:45.584Z,97.80
2018-09-11T08:55:13.653Z,98.00
2018-09-11T08:57:41.741Z,97.50
2018-09-11T09:00:10.150Z,97.10
2018-09-11T09:02:38.250Z,96.60
2018-09-11T09:05:06.251Z,96.50
2018-09-11T09:07:34.325Z,95.90
2018-09-11T09:10:02.413Z,96.10
2018-09-11T09:12:30.429Z,96.20
2018-09-11T09:14:58.534Z,95.70
2018-09-11T09:17:26.584Z,96.40
2018-09-11T09:19:54.730Z,95.70
2018-09-11T09:22:22.834Z,95.70
2018-09-11T09:24:50.927Z,95.10
2018-09-11T09:27:18.952Z,95.70
2018-09-11T09:29:47.026Z,94.40
2018-09-11T09:32:15.118Z,94.40
2018-09-11T09:34:43.151Z,94.70
2018-09-11T09:37:11.500Z,93.50
2018-09-11T09:39:39.565Z,94.10
2018-09-11T09:42:07.737Z,93.80
2018-09-11T09:44:35.709Z,94.10
2018-09-11T09:47:03.783Z,93.10
2018-09-11T09:49:31.882Z,92.70
2018-09-11T09:51:59.985Z,92.20
2018-09-11T09:54:28.001Z,93.70
2018-09-11T09:56:56.034Z,92.20
2018-09-11T09:59:24.477Z,92.90
2018-09-11T10:01:57.926Z,92.50
2018-09-11T10:04:26.201Z,91.60
2018-09-11T10:06:54.298Z,91.80
2018-09-11T10:09:22.389Z,91.60
2018-09-11T10:11:50.443Z,91.70
2018-09-11T10:14:18.442Z,91.90
2018-09-11T10:16:46.457Z,91.70
2018-09-11T10:19:14.449Z,91.50
2018-09-11T10:21:42.557Z,91.20
2018-09-11T10:24:10.537Z,91.00
2018-09-11T10:26:38.761Z,91.20
2018-09-11T10:29:06.865Z,91.10
2018-09-11T10:31:34.840Z,91.30
2018-09-11T10:34:02.874Z,91.20
2018-09-11T10:36:30.941Z,91.60
2018-09-11T10:38:59.046Z,91.30
2018-09-11T10:41:27.079Z,91.30
2018-09-11T10:43:55.143Z,91.40
2018-09-11T10:46:23.224Z,91.40
2018-09-11T10:48:51.235Z,90.60
2018-09-11T10:51:19.225Z,90.00
2018-09-11T10:53:47.241Z,87.90
2018-09-11T10:56:15.306Z,87.10
2018-09-11T10:58:43.407Z,89.00
2018-09-11T11:01:11.394Z,87.90
2018-09-11T11:03:39.557Z,87.10
2018-09-11T11:06:07.606Z,87.60
2018-09-11T11:08:35.693Z,87.20
2018-09-11T11:11:03.806Z,86.40
2018-09-11T11:13:31.820Z,83.90
2018-09-11T11:15:59.880Z,83.70
2018-09-11T11:18:27.886Z,84.10
2018-09-11T11:20:56.034Z,83.80
2018-09-11T11:23:24.382Z,81.40
2018-09-11T11:25:52.378Z,80.40
2018-09-11T11:28:20.361Z,79.40
2018-09-11T11:30:48.381Z,77.70
2018-09-11T11:33:16.570Z,76.70
2018-09-11T11:35:44.593Z,77.80
2018-09-11T11:38:12.653Z,78.50
2018-09-11T11:40:40.816Z,78.70
2018-09-11T11:43:09.149Z,75.90
2018-09-11T11:45:37.173Z,74.50
2018-09-11T11:48:05.276Z,72.00
2018-09-11T11:50:33.281Z,73.80
2018-09-11T11:53:01.296Z,73.30
2018-09-11T11:55:29.411Z,72.60
2018-09-11T11:57:57.362Z,71.80
2018-09-11T12:00:25.349Z,72.80
2018-09-11T12:02:53.337Z,73.40
2018-09-11T12:05:21.362Z,72.90
2018-09-11T12:07:49.458Z,69.40
2018-09-11T12:10:17.808Z,66.80
2018-09-11T12:12:45.803Z,67.80
2018-09-11T12:15:13.801Z,66.60
2018-09-11T12:17:41.896Z,68.50
2018-09-11T12:20:09.992Z,67.80
2018-09-11T12:22:38.233Z,67.60
2018-09-11T12:25:06.294Z,63.60
2018-09-11T12:27:34.389Z,63.10
2018-09-11T12:30:02.728Z,64.20
2018-09-11T12:32:30.790Z,63.70
2018-09-11T12:34:58.879Z,61.60
2018-09-11T12:37:26.913Z,63.80
2018-09-11T12:39:54.974Z,63.20
2018-09-11T12:42:23.070Z,63.30
2018-09-11T12:44:51.121Z,63.90
2018-09-11T12:47:19.349Z,63.30
2018-09-11T12:49:47.266Z,62.90
2018-09-11T12:52:15.327Z,59.40
2018-09-11T12:54:43.358Z,60.50
2018-09-11T12:57:11.450Z,60.10
2018-09-11T12:59:39.479Z,58.80
2018-09-11T13:02:07.666Z,58.60
2018-09-11T13:04:35.686Z,59.80
2018-09-11T13:07:03.685Z,57.40
2018-09-11T13:09:31.832Z,57.50
2018-09-11T13:11:59.733Z,58.10
2018-09-11T13:14:27.838Z,58.30
2018-09-11T13:16:56.020Z,58.00
2018-09-11T13:19:24.116Z,55.90
2018-09-11T13:21:52.093Z,56.70
2018-09-11T13:24:20.130Z,56.60
2018-09-11T13:26:48.397Z,54.80
2018-09-11T13:29:16.389Z,55.80
2018-09-11T13:31:44.492Z,56.30
2018-09-11T13:34:12.803Z,57.00
2018-09-11T13:36:40.897Z,58.00
2018-09-11T13:39:09.714Z,59.00
2018-09-11T13:41:37.816Z,58.60
2018-09-11T13:44:05.977Z,57.80
2018-09-11T13:46:38.127Z,59.70
2018-09-11T13:49:06.190Z,59.90
2018-09-11T13:51:34.286Z,59.30
2018-09-11T13:54:02.295Z,59.90
2018-09-11T13:56:30.286Z,59.70
2018-09-11T13:58:58.356Z,60.30
2018-09-11T14:01:26.381Z,59.50
2018-09-11T14:03:54.467Z,60.10
2018-09-11T14:06:22.561Z,59.30
2018-09-11T14:08:50.663Z,60.30
2018-09-11T14:11:18.641Z,59.80
2018-09-11T14:13:46.730Z,59.50
2018-09-11T14:16:14.754Z,60.60
2018-09-11T14:18:42.774Z,60.00
2018-09-11T14:21:10.804Z,60.10
2018-09-11T14:23:38.803Z,59.60
2018-09-11T14:26:06.829Z,59.00
2018-09-11T14:28:34.991Z,59.60
2018-09-11T14:31:03.121Z,58.90
2018-09-11T14:33:31.124Z,60.40
2018-09-11T14:35:59.137Z,59.40
2018-09-11T14:38:27.153Z,59.20
2018-09-11T14:40:55.207Z,59.20
2018-09-11T14:43:23.190Z,58.20
2018-09-11T14:45:51.286Z,59.60
2018-09-11T14:48:19.292Z,59.40
2018-09-11T14:50:47.497Z,59.40
2018-09-11T14:53:15.585Z,58.80
2018-09-11T14:55:43.690Z,58.90
2018-09-11T14:58:11.719Z,59.30
2018-09-11T15:00:39.693Z,59.30
2018-09-11T15:03:09.181Z,59.60
2018-09-11T15:05:37.170Z,59.30
2018-09-11T15:08:05.321Z,59.30
2018-09-11T15:10:33.385Z,59.80
2018-09-11T15:13:01.469Z,59.10
2018-09-11T15:15:29.577Z,59.30
2018-09-11T15:17:57.608Z,59.10
2018-09-11T15:20:25.678Z,58.80
2018-09-11T15:22:53.666Z,59.10
2018-09-11T15:25:21.658Z,59.50
2018-09-11T15:27:49.761Z,59.30
2018-09-11T15:30:17.853Z,59.50
2018-09-11T15:32:45.956Z,60.00
2018-09-11T15:35:14.360Z,61.00
2018-09-11T15:37:42.423Z,59.80
2018-09-11T15:40:10.810Z,60.30
2018-09-11T15:42:38.854Z,61.30
2018-09-11T15:45:06.886Z,61.20
2018-09-11T15:47:34.897Z,61.60
2018-09-11T15:50:03.037Z,60.80
2018-09-11T15:52:32.057Z,61.80
2018-09-11T15:55:00.129Z,62.40
2018-09-11T15:57:28.149Z,60.80
2018-09-11T15:59:56.346Z,61.40
2018-09-11T16:02:24.354Z,61.70
2018-09-11T16:04:52.441Z,60.50
2018-09-11T16:07:20.542Z,60.50
2018-09-11T16:09:48.635Z,60.00
2018-09-11T16:12:16.722Z,59.90
2018-09-11T16:14:44.926Z,60.30
2018-09-11T16:17:12.909Z,60.60
2018-09-11T16:19:41.025Z,59.60
2018-09-11T16:22:09.166Z,59.70
2018-09-11T16:24:37.118Z,60.30
2018-09-11T16:27:05.355Z,62.10
2018-09-11T16:29:33.526Z,61.90
2018-09-11T16:32:01.562Z,62.30
2018-09-11T16:34:29.610Z,63.90
2018-09-11T16:36:57.905Z,63.90
2018-09-11T16:39:26.012Z,63.80
2018-09-11T16:41:54.104Z,64.00
2018-09-11T16:44:22.300Z,64.40
2018-09-11T16:46:50.293Z,64.50
2018-09-11T16:49:18.289Z,64.10
2018-09-11T16:51:46.313Z,62.90
2018-09-11T16:54:14.305Z,64.00
2018-09-11T16:56:42.377Z,64.30
2018-09-11T16:59:10.374Z,64.60
2018-09-11T17:01:38.767Z,64.50
2018-09-11T17:04:06.865Z,64.70
2018-09-11T17:06:34.845Z,65.80
2018-09-11T17:09:02.845Z,65.80
2018-09-11T17:11:30.958Z,67.20
2018-09-11T17:13:58.989Z,67.70
2018-09-11T17:16:27.005Z,68.80
2018-09-11T17:18:55.199Z,69.60
2018-09-11T17:21:23.252Z,71.70
2018-09-11T17:23:51.277Z,70.90
2018-09-11T17:26:19.342Z,71.60
2018-09-11T17:28:47.442Z,73.70
2018-09-11T17:31:15.464Z,75.60
2018-09-11T17:33:43.536Z,78.90
2018-09-11T17:36:11.630Z,76.90
2018-09-11T17:38:39.726Z,78.80
2018-09-11T17:41:07.713Z,77.00
2018-09-11T17:43:35.819Z,81.20
2018-09-11T17:46:03.929Z,83.40
2018-09-11T17:48:31.959Z,81.10
2018-09-11T17:51:00.002Z,78.20
2018-09-11T17:53:28.085Z,78.60
2018-09-11T17:55:56.166Z,80.20
2018-09-11T17:58:24.160Z,79.70
2018-09-11T18:00:52.317Z,80.30
2018-09-11T18:03:20.588Z,81.10
2018-09-11T18:05:48.998Z,83.50
2018-09-11T18:08:17.003Z,86.00
2018-09-11T18:10:45.086Z,87.30
2018-09-11T18:13:13.490Z,88.30
2018-09-11T18:15:41.910Z,89.40
2018-09-11T18:18:10.397Z,90.10
2018-09-11T18:20:38.498Z,90.10
2018-09-11T18:23:06.714Z,90.10
2018-09-11T18:25:34.844Z,90.00
2018-09-11T18:28:02.891Z,88.80
2018-09-11T18:30:30.991Z,90.90
2018-09-11T18:32:59.003Z,91.80
2018-09-11T18:35:27.061Z,92.30
2018-09-11T18:37:55.182Z,93.20
2018-09-11T18:40:23.344Z,93.40
2018-09-11T18:42:51.367Z,94.00
2018-09-11T18:45:19.470Z,93.70
2018-09-11T18:47:48.547Z,93.50
2018-09-11T18:50:16.521Z,93.90
2018-09-11T18:52:44.573Z,93.90
2018-09-11T18:55:12.609Z,93.80
2018-09-11T18:57:40.672Z,95.00
2018-09-11T19:00:08.660Z,95.30
2018-09-11T19:02:36.854Z,95.10
2018-09-11T19:05:04.974Z,94.10
2018-09-11T19:07:33.047Z,92.40
2018-09-11T19:10:01.449Z,91.70
2018-09-11T19:12:29.770Z,91.90
2018-09-11T19:14:57.446Z,92.20
2018-09-11T19:17:25.547Z,92.30
2018-09-11T19:19:53.570Z,93.60
2018-09-11T19:22:21.549Z,94.10
2018-09-11T19:24:49.940Z,94.90
2018-09-11T19:27:18.038Z,95.30
2018-09-11T19:29:46.026Z,96.10
2018-09-11T19:32:14.429Z,95.80
2018-09-11T19:34:42.478Z,96.70
2018-09-11T19:37:10.935Z,96.60
2018-09-11T19:39:39.021Z,97.70
2018-09-11T19:42:07.495Z,97.40
2018-09-11T19:44:35.529Z,97.70
2018-09-11T19:47:03.630Z,96.30
2018-09-11T19:49:31.929Z,95.90
2018-09-11T19:52:00.047Z,95.60
2018-09-11T19:54:28.138Z,96.30
2018-09-11T19:56:56.181Z,96.60
2018-09-11T19:59:24.250Z,97.10
2018-09-11T20:01:52.273Z,97.90
2018-09-11T20:04:20.305Z,98.40
2018-09-11T20:06:48.298Z,99.10
2018-09-11T20:09:16.398Z,99.50
2018-09-11T20:11:44.427Z,99.80
2018-09-11T20:14:12.793Z,99.90
2018-09-11T20:16:40.866Z,99.90
2018-09-11T20:19:08.961Z,99.90
2018-09-11T20:21:37.073Z,99.50
2018-09-11T20:24:05.223Z,98.20
2018-09-11T20:26:33.210Z,98.30
2018-09-11T20:29:01.274Z,97.50
2018-09-11T20:31:29.268Z,98.40
2018-09-11T20:33:57.501Z,98.20
2018-09-11T20:36:25.561Z,97.90
2018-09-11T20:38:53.570Z,97.90
2018-09-11T20:41:21.630Z,97.60
2018-09-11T20:43:49.626Z,95.80
2018-09-11T20:46:17.798Z,96.10
2018-09-11T20:48:45.826Z,95.40
2018-09-11T20:51:13.822Z,95.20
2018-09-11T20:53:42.246Z,97.20
2018-09-11T20:56:10.342Z,99.40
2018-09-11T20:58:38.318Z,98.10
2018-09-11T21:01:06.629Z,97.20
2018-09-11T21:03:34.615Z,96.30
2018-09-11T21:06:02.653Z,95.50
2018-09-11T21:08:30.713Z,94.60
2018-09-11T21:10:58.713Z,94.30
2018-09-11T21:13:26.913Z,94.40
2018-09-11T21:15:55.014Z,94.20
2018-09-11T21:18:23.106Z,94.50
2018-09-11T21:20:51.210Z,93.90
2018-09-11T21:23:19.205Z,94.00
2018-09-11T21:25:47.936Z,94.00
2018-09-11T21:28:15.917Z,94.70
2018-09-11T21:30:43.949Z,94.30
2018-09-11T21:33:12.012Z,94.10
2018-09-11T21:35:40.715Z,95.60
2018-09-11T21:38:08.733Z,95.10
2018-09-11T21:40:36.773Z,95.80
2018-09-11T21:43:04.894Z,94.70
2018-09-11T21:45:32.889Z,94.20
2018-09-11T21:48:01.197Z,94.50
2018-09-11T21:50:29.290Z,94.50
2018-09-11T21:52:57.304Z,94.20
2018-09-11T21:55:25.299Z,94.20
2018-09-11T21:57:53.471Z,94.60
2018-09-11T22:00:21.814Z,95.00
2018-09-11T22:02:49.827Z,94.90
2018-09-11T22:05:17.817Z,95.70
2018-09-11T22:07:45.874Z,96.10
2018-09-11T22:10:13.898Z,96.90
2018-09-11T22:12:42.084Z,97.50
2018-09-11T22:15:11.104Z,96.80
2018-09-11T22:17:39.277Z,97.00
2018-09-11T22:20:07.677Z,96.20
2018-09-11T22:22:35.782Z,96.30
2018-09-11T22:25:04.173Z,96.60
2018-09-11T22:27:32.478Z,96.60
2018-09-11T22:30:00.462Z,96.30
2018-09-11T22:32:28.573Z,96.60
2018-09-11T22:34:56.652Z,97.30
2018-09-11T22:37:24.665Z,96.90
2018-09-11T22:39:52.689Z,96.00
2018-09-11T22:42:20.766Z,95.80
2018-09-11T22:44:48.782Z,95.60
2018-09-11T22:47:16.833Z,96.10
2018-09-11T22:49:44.849Z,96.70
2018-09-11T22:52:12.944Z,97.30
2018-09-11T22:54:40.937Z,97.90
2018-09-11T22:57:08.953Z,98.70
2018-09-11T22:59:36.984Z,99.50
2018-09-11T23:02:04.972Z,99.90
2018-09-11T23:04:33.025Z,99.10
2018-09-11T23:07:01.005Z,98.80
2018-09-11T23:09:29.005Z,97.70
2018-09-11T23:11:57.022Z,97.80
2018-09-11T23:14:25.103Z,98.20
2018-09-11T23:16:53.122Z,97.10
2018-09-11T23:19:21.169Z,97.20
2018-09-11T23:21:49.188Z,96.70
2018-09-11T23:24:17.277Z,96.50
2018-09-11T23:26:45.265Z,96.20
2018-09-11T23:29:13.287Z,95.90
2018-09-11T23:31:41.579Z,95.80
2018-09-11T23:34:09.587Z,95.70
2018-09-11T23:36:37.658Z,95.80
2018-09-11T23:39:06.812Z,95.70
2018-09-11T23:41:34.878Z,95.70
2018-09-11T23:44:02.859Z,95.80
2018-09-11T23:46:31.273Z,95.70
2018-09-11T23:48:59.366Z,95.60
2018-09-11T23:51:27.342Z,95.70
2018-09-11T23:53:55.352Z,95.90
2018-09-11T23:56:23.361Z,96.00
2018-09-11T23:58:51.594Z,95.70
